CheckWX is a tool to help pilots better visualize weather data.  It is not intended as a substitute for an official pre-flight weather briefing.

19:14:16 UTC

CYKY METAR
Kindersley Airport
Kindersley, Canada
Current

1 hour ago

CYKY 231800Z 21006KT 15SM FEW100 BKN240 M10/M11 A2997 RMK AC1CI5 AC TR SLP195
Observed
Jan-23 @ 18:00 UTC
Wind
  • 210° at 6 KTS
Visibility
15 SM
Flight Rules
VFR
Cloud Levels
  • Few at 10,000' AGL
  • Broken at 24,000' AGL
Temperature
-10°C / 14°F
Dewpoint
-11°C / 12°F
Humidity
92%
Altimeter
29.97" Hg
Pressure
1014.92 hPa
Previous

2 hours ago

CYKY 231704Z 15005KT 4SM BR FEW240 M12/M14 A2997 RMK CI2 SLP198
Observed
Jan-23 @ 17:04 UTC
Wind
  • 150° at 5 KTS
Visibility
4 SM
Flight Rules
MVFR
Conditions
Mist
Cloud Levels
  • Few at 24,000' AGL
Temperature
-12°C / 10°F
Dewpoint
-14°C / 7°F
Humidity
85%
Altimeter
29.97" Hg
Pressure
1014.92 hPa
Previous

3 hours ago

CYKY 231633Z 17005KT 2 1/2SM BR SCT240 M13/M15 A2998 RMK CI3 SLP202
Observed
Jan-23 @ 16:33 UTC
Wind
  • 170° at 5 KTS
Visibility
2 1/2 SM
Flight Rules
IFR
Conditions
Mist
Cloud Levels
  • Scattered at 24,000' AGL
Temperature
-13°C / 9°F
Dewpoint
-15°C / 5°F
Humidity
85%
Altimeter
29.98" Hg
Pressure
1015.22 hPa